createdAt,value
2018-11-06T00:01:11.186Z,43.13
2018-11-06T00:03:47.370Z,38.70
2018-11-06T00:06:17.690Z,41.30
2018-11-06T00:08:48.035Z,42.03
2018-11-06T00:11:19.088Z,39.90
2018-11-06T00:13:49.481Z,40.17
2018-11-06T00:16:19.944Z,42.07
2018-11-06T00:18:50.411Z,41.63
2018-11-06T00:21:20.759Z,40.33
2018-11-06T00:23:51.180Z,40.83
2018-11-06T00:26:26.670Z,42.03
2018-11-06T00:28:57.240Z,39.47
2018-11-06T00:31:27.610Z,44.23
2018-11-06T00:34:04.900Z,41.40
2018-11-06T00:36:35.197Z,40.97
2018-11-06T00:39:07.034Z,42.23
2018-11-06T00:41:37.435Z,42.80
2018-11-06T00:44:07.900Z,41.50
2018-11-06T00:46:38.328Z,42.93
2018-11-06T00:49:09.515Z,41.30
2018-11-06T00:51:39.938Z,39.33
2018-11-06T00:54:10.573Z,41.80
2018-11-06T00:56:40.907Z,39.20
2018-11-06T00:59:11.246Z,41.80
2018-11-06T01:01:41.713Z,43.57
2018-11-06T01:04:13.676Z,42.03
2018-11-06T01:06:44.048Z,37.20
2018-11-06T01:09:15.722Z,40.13
2018-11-06T01:11:46.028Z,39.70
2018-11-06T01:14:16.432Z,38.20
2018-11-06T01:16:46.771Z,43.17
2018-11-06T01:19:17.250Z,38.60
2018-11-06T01:21:47.552Z,39.90
2018-11-06T01:24:17.853Z,41.00
2018-11-06T01:26:48.399Z,37.77
2018-11-06T01:29:18.744Z,40.80
2018-11-06T01:31:49.065Z,43.20
2018-11-06T01:34:19.400Z,41.70
2018-11-06T01:36:49.797Z,43.67
2018-11-06T01:39:20.246Z,42.10
2018-11-06T01:41:50.447Z,39.10
2018-11-06T01:44:20.870Z,43.53
2018-11-06T01:46:51.177Z,41.10
2018-11-06T01:49:21.697Z,40.93
2018-11-06T01:51:52.004Z,38.03
2018-11-06T01:54:22.391Z,40.00
2018-11-06T01:56:52.805Z,41.50
2018-11-06T01:59:23.261Z,41.20
2018-11-06T02:01:53.415Z,42.03
2018-11-06T02:04:23.795Z,40.53
2018-11-06T02:06:54.174Z,41.13
2018-11-06T02:09:24.428Z,41.47
2018-11-06T02:11:54.811Z,43.30
2018-11-06T02:14:25.320Z,39.63
2018-11-06T02:16:55.707Z,42.87
2018-11-06T02:19:26.161Z,41.67
2018-11-06T02:21:56.437Z,42.00
2018-11-06T02:24:26.819Z,40.40
2018-11-06T02:26:57.339Z,43.80
2018-11-06T02:29:27.622Z,41.17
2018-11-06T02:31:57.955Z,40.73
2018-11-06T02:34:28.428Z,42.27
2018-11-06T02:36:58.588Z,41.37
2018-11-06T02:39:28.927Z,41.17
2018-11-06T02:41:59.251Z,43.00
2018-11-06T02:44:29.723Z,40.77
2018-11-06T02:47:00.113Z,41.17
2018-11-06T02:49:30.443Z,41.67
2018-11-06T02:52:00.862Z,42.93
2018-11-06T02:54:31.235Z,41.53
2018-11-06T02:57:01.538Z,44.77
2018-11-06T02:59:31.939Z,40.57
2018-11-06T03:02:02.381Z,41.67
2018-11-06T03:04:32.918Z,43.40
2018-11-06T03:07:03.112Z,44.10
2018-11-06T03:09:33.663Z,39.73
2018-11-06T03:12:03.886Z,39.70
2018-11-06T03:14:34.212Z,42.13
2018-11-06T03:17:04.565Z,41.93
2018-11-06T03:19:34.981Z,41.10
2018-11-06T03:22:05.335Z,39.47
2018-11-06T03:24:35.498Z,42.63
2018-11-06T03:27:05.932Z,44.10
2018-11-06T03:29:36.378Z,41.07
2018-11-06T03:32:07.011Z,44.90
2018-11-06T03:34:38.896Z,42.17
2018-11-06T03:37:09.533Z,41.23
2018-11-06T03:39:39.698Z,40.57
2018-11-06T03:42:10.092Z,47.50
2018-11-06T03:44:40.630Z,40.97
2018-11-06T03:47:11.062Z,42.27
2018-11-06T03:49:41.622Z,42.93
2018-11-06T03:52:11.816Z,42.00
2018-11-06T03:54:42.195Z,43.27
2018-11-06T03:57:12.594Z,43.83
2018-11-06T03:59:43.066Z,45.10
2018-11-06T04:02:13.371Z,42.47
2018-11-06T04:04:43.877Z,40.53
2018-11-06T04:07:14.394Z,43.40
2018-11-06T04:09:44.862Z,40.77
2018-11-06T04:12:15.128Z,40.70
2018-11-06T04:14:45.558Z,39.20
2018-11-06T04:17:15.970Z,44.40
2018-11-06T04:19:46.509Z,40.27
2018-11-06T04:22:16.835Z,40.43
2018-11-06T04:24:47.327Z,44.57
2018-11-06T04:27:17.902Z,42.37
2018-11-06T04:29:48.528Z,42.53
2018-11-06T04:32:19.089Z,46.17
2018-11-06T04:34:49.419Z,39.83
2018-11-06T04:37:19.688Z,41.43
2018-11-06T04:39:50.071Z,39.33
2018-11-06T04:42:20.648Z,42.50
2018-11-06T04:44:50.915Z,39.77
2018-11-06T04:47:21.339Z,36.90
2018-11-06T04:49:51.723Z,39.10
2018-11-06T04:52:22.189Z,41.30
2018-11-06T04:54:52.429Z,38.93
2018-11-06T04:57:22.808Z,41.27
2018-11-06T04:59:53.214Z,35.40
2018-11-06T05:02:23.693Z,38.67
2018-11-06T05:04:54.016Z,36.90
2018-11-06T05:07:24.392Z,40.60
2018-11-06T05:09:54.889Z,36.63
2018-11-06T05:12:25.299Z,39.57
2018-11-06T05:14:55.517Z,39.50
2018-11-06T05:17:25.982Z,39.33
2018-11-06T05:19:56.434Z,40.50
2018-11-06T05:22:26.937Z,35.23
2018-11-06T05:24:57.460Z,39.53
2018-11-06T05:27:28.013Z,38.30
2018-11-06T05:29:58.308Z,39.53
2018-11-06T05:32:28.670Z,33.13
2018-11-06T05:34:59.207Z,36.80
2018-11-06T05:37:29.660Z,36.30
2018-11-06T05:40:16.391Z,36.80
2018-11-06T05:42:46.800Z,36.70
2018-11-06T05:45:17.112Z,38.33
2018-11-06T05:47:47.422Z,37.13
2018-11-06T05:50:17.910Z,34.87
2018-11-06T05:52:48.405Z,33.10
2018-11-06T05:55:18.732Z,37.87
2018-11-06T05:57:49.161Z,39.10
2018-11-06T06:00:19.794Z,35.43
2018-11-06T06:02:50.007Z,35.83
2018-11-06T06:05:20.421Z,36.97
2018-11-06T06:07:50.838Z,34.83
2018-11-06T06:10:21.323Z,36.53
2018-11-06T06:12:51.651Z,33.20
2018-11-06T06:15:22.011Z,37.67
2018-11-06T06:17:52.639Z,35.73
2018-11-06T06:20:23.273Z,36.73
2018-11-06T06:22:53.760Z,36.40
2018-11-06T06:25:24.177Z,38.60
2018-11-06T06:27:54.676Z,38.00
2018-11-06T06:30:25.248Z,37.07
2018-11-06T06:32:55.756Z,38.30
2018-11-06T06:35:26.350Z,38.17
2018-11-06T06:37:56.717Z,40.43
2018-11-06T06:40:27.062Z,37.20
2018-11-06T06:42:57.496Z,36.80
2018-11-06T06:45:27.919Z,35.33
2018-11-06T06:47:58.240Z,34.77
2018-11-06T06:50:28.529Z,34.23
2018-11-06T06:52:58.995Z,34.77
2018-11-06T06:55:29.345Z,35.17
2018-11-06T06:57:59.703Z,36.53
2018-11-06T07:00:30.080Z,35.80
2018-11-06T07:03:00.477Z,37.67
2018-11-06T07:05:30.821Z,35.07
2018-11-06T07:08:01.258Z,36.27
2018-11-06T07:10:31.858Z,33.43
2018-11-06T07:13:02.211Z,31.40
2018-11-06T07:15:32.883Z,31.47
2018-11-06T07:18:03.232Z,35.70
2018-11-06T07:20:33.650Z,32.70
2018-11-06T07:23:04.116Z,32.90
2018-11-06T07:25:34.569Z,30.90
2018-11-06T07:28:05.394Z,33.90
2018-11-06T07:30:35.575Z,31.37
2018-11-06T07:33:05.996Z,33.93
2018-11-06T07:35:37.554Z,32.60
2018-11-06T07:38:07.662Z,34.07
2018-11-06T07:40:38.127Z,31.40
2018-11-06T07:43:08.480Z,33.20
2018-11-06T07:45:38.902Z,31.10
2018-11-06T07:48:09.237Z,31.73
2018-11-06T07:50:39.642Z,32.90
2018-11-06T07:53:10.060Z,32.47
2018-11-06T07:55:40.494Z,29.47
2018-11-06T07:58:10.814Z,34.07
2018-11-06T08:00:41.377Z,31.47
2018-11-06T08:03:11.676Z,31.90
2018-11-06T08:05:42.038Z,31.77
2018-11-06T08:08:12.263Z,32.40
2018-11-06T08:10:42.652Z,30.60
2018-11-06T08:13:12.901Z,30.63
2018-11-06T08:15:43.301Z,33.73
2018-11-06T08:18:13.822Z,35.30
2018-11-06T08:20:44.463Z,34.20
2018-11-06T08:23:14.752Z,32.07
2018-11-06T08:25:45.345Z,31.73
2018-11-06T08:28:15.945Z,31.63
2018-11-06T08:30:46.563Z,32.73
2018-11-06T08:33:16.824Z,30.63
2018-11-06T08:35:47.332Z,30.67
2018-11-06T08:38:17.722Z,31.30
2018-11-06T08:40:48.289Z,31.87
2018-11-06T08:43:18.634Z,32.17
2018-11-06T08:45:49.142Z,35.60
2018-11-06T08:48:19.485Z,32.40
2018-11-06T08:50:49.743Z,32.60
2018-11-06T08:53:20.109Z,34.07
2018-11-06T08:55:50.470Z,30.77
2018-11-06T08:58:20.850Z,30.77
2018-11-06T09:00:51.289Z,31.90
2018-11-06T09:03:21.810Z,31.80
2018-11-06T09:05:52.235Z,29.07
2018-11-06T09:08:22.395Z,29.60
2018-11-06T09:10:52.837Z,31.80
2018-11-06T09:13:23.288Z,31.40
2018-11-06T09:15:53.773Z,30.53
2018-11-06T09:18:24.131Z,31.70
2018-11-06T09:20:54.543Z,30.57
2018-11-06T09:23:25.015Z,28.50
2018-11-06T09:25:55.469Z,34.00
2018-11-06T09:28:25.736Z,36.87
2018-11-06T09:30:56.106Z,41.60
2018-11-06T09:33:26.622Z,41.60
2018-11-06T09:35:57.096Z,30.20
2018-11-06T09:38:27.575Z,29.27
2018-11-06T09:40:57.927Z,27.47
2018-11-06T09:43:28.187Z,29.83
2018-11-06T09:45:58.575Z,28.60
2018-11-06T09:48:28.850Z,30.13
2018-11-06T09:50:59.332Z,30.37
2018-11-06T09:53:29.546Z,27.97
2018-11-06T09:55:59.848Z,28.83
2018-11-06T09:58:30.094Z,33.90
2018-11-06T10:01:00.271Z,27.40
2018-11-06T10:03:30.547Z,26.67
2018-11-06T10:06:00.887Z,27.37
2018-11-06T10:08:31.344Z,25.13
2018-11-06T10:11:01.746Z,25.33
2018-11-06T10:13:32.096Z,24.33
2018-11-06T10:16:02.581Z,24.67
2018-11-06T10:18:32.894Z,25.97
2018-11-06T10:21:03.561Z,24.53
2018-11-06T10:23:34.033Z,23.13
2018-11-06T10:26:04.479Z,26.53
2018-11-06T10:28:34.764Z,24.43
2018-11-06T10:31:05.382Z,22.07
2018-11-06T10:33:35.878Z,23.90
2018-11-06T10:36:06.406Z,21.83
2018-11-06T10:38:36.801Z,22.80
2018-11-06T10:41:07.247Z,21.97
2018-11-06T10:43:38.039Z,24.10
2018-11-06T10:46:08.404Z,21.73
2018-11-06T10:48:38.715Z,20.83
2018-11-06T10:51:09.161Z,21.93
2018-11-06T10:53:39.409Z,22.20
2018-11-06T10:56:09.824Z,23.97
2018-11-06T10:58:40.390Z,21.30
2018-11-06T11:01:15.911Z,20.33
2018-11-06T11:03:51.446Z,21.23
2018-11-06T11:06:21.883Z,20.17
2018-11-06T11:08:52.181Z,19.47
2018-11-06T11:11:22.622Z,18.50
2018-11-06T11:13:53.010Z,18.23
2018-11-06T11:16:23.372Z,18.30
2018-11-06T11:18:53.972Z,19.60
2018-11-06T11:21:24.425Z,20.20
2018-11-06T11:23:54.776Z,20.60
2018-11-06T11:26:25.260Z,20.50
2018-11-06T11:28:55.675Z,20.80
2018-11-06T11:31:26.181Z,21.87
2018-11-06T11:33:56.496Z,19.57
2018-11-06T11:36:26.971Z,20.27
2018-11-06T11:38:57.329Z,20.20
2018-11-06T11:41:27.793Z,18.60
2018-11-06T11:43:58.159Z,19.90
2018-11-06T11:46:28.488Z,20.50
2018-11-06T11:48:58.689Z,22.27
2018-11-06T11:51:29.005Z,21.90
2018-11-06T11:53:59.240Z,20.87
2018-11-06T11:56:30.150Z,20.50
2018-11-06T11:59:00.366Z,21.80
2018-11-06T12:01:30.773Z,19.17
2018-11-06T12:04:01.124Z,19.47
2018-11-06T12:06:31.493Z,27.93
2018-11-06T12:09:01.939Z,20.93
2018-11-06T12:11:32.366Z,21.67
2018-11-06T12:14:02.951Z,21.47
2018-11-06T12:16:33.228Z,21.17
2018-11-06T12:19:03.495Z,20.30
2018-11-06T12:21:33.951Z,21.57
2018-11-06T12:24:05.017Z,22.23
2018-11-06T12:26:35.445Z,24.30
2018-11-06T12:29:05.963Z,22.33
2018-11-06T12:31:36.222Z,23.47
2018-11-06T12:34:07.048Z,24.20
2018-11-06T12:36:37.614Z,22.50
2018-11-06T12:39:10.157Z,23.37
2018-11-06T12:41:40.622Z,21.23
2018-11-06T12:44:11.169Z,23.10
2018-11-06T12:46:41.498Z,21.13
2018-11-06T12:49:11.856Z,22.27
2018-11-06T12:51:42.335Z,22.67
2018-11-06T12:54:12.636Z,20.63
2018-11-06T12:56:43.024Z,25.00
2018-11-06T12:59:13.332Z,25.50
2018-11-06T13:01:43.776Z,23.43
2018-11-06T13:04:14.257Z,25.77
2018-11-06T13:06:44.609Z,23.97
2018-11-06T13:09:15.092Z,25.10
2018-11-06T13:11:45.492Z,23.40
2018-11-06T13:14:15.750Z,25.60
2018-11-06T13:16:46.126Z,26.13
2018-11-06T13:19:16.414Z,25.17
2018-11-06T13:21:46.769Z,24.00
2018-11-06T13:24:17.132Z,24.93
2018-11-06T13:26:47.523Z,26.30
2018-11-06T13:29:18.035Z,24.00
2018-11-06T13:31:48.588Z,25.00
2018-11-06T13:34:18.801Z,27.30
2018-11-06T13:36:49.338Z,26.27
2018-11-06T13:39:19.583Z,23.13
2018-11-06T13:41:50.088Z,26.33
2018-11-06T13:44:21.296Z,27.43
2018-11-06T13:46:51.580Z,25.97
2018-11-06T13:49:21.972Z,32.90
2018-11-06T13:51:52.494Z,26.60
2018-11-06T13:54:22.754Z,27.80
2018-11-06T13:56:53.272Z,29.10
2018-11-06T13:59:23.726Z,28.17
2018-11-06T14:01:54.215Z,28.30
2018-11-06T14:04:24.511Z,26.73
2018-11-06T14:06:54.887Z,28.07
2018-11-06T14:09:25.360Z,28.60
2018-11-06T14:11:55.787Z,26.23
2018-11-06T14:14:26.128Z,28.80
2018-11-06T14:16:56.482Z,28.20
2018-11-06T14:19:26.866Z,31.73
2018-11-06T14:21:57.176Z,30.80
2018-11-06T14:24:27.657Z,32.87
2018-11-06T14:26:58.162Z,32.03
2018-11-06T14:29:28.375Z,32.30
2018-11-06T14:31:58.723Z,32.40
2018-11-06T14:34:29.029Z,30.47
2018-11-06T14:36:59.248Z,32.23
2018-11-06T14:39:29.454Z,31.77
2018-11-06T14:42:00.280Z,32.07
2018-11-06T14:44:30.660Z,32.70
2018-11-06T14:47:01.188Z,35.87
2018-11-06T14:49:31.336Z,31.90
2018-11-06T14:52:01.844Z,34.07
2018-11-06T14:54:32.150Z,32.73
2018-11-06T14:57:02.455Z,31.70
2018-11-06T14:59:32.852Z,34.37
2018-11-06T15:02:03.343Z,34.67
2018-11-06T15:04:33.615Z,32.03
2018-11-06T15:07:03.979Z,30.47
2018-11-06T15:09:34.443Z,33.67
2018-11-06T15:12:04.810Z,33.70
2018-11-06T15:14:35.162Z,33.57
2018-11-06T15:17:05.490Z,33.87
2018-11-06T15:19:35.784Z,35.30
2018-11-06T15:22:06.307Z,33.63
2018-11-06T15:24:36.882Z,36.33
2018-11-06T15:27:07.377Z,37.17
2018-11-06T15:29:37.696Z,36.73
2018-11-06T15:32:08.103Z,36.20
2018-11-06T15:34:39.019Z,35.50
2018-11-06T15:37:09.429Z,38.00
2018-11-06T15:39:39.787Z,38.10
2018-11-06T15:42:10.310Z,38.73
2018-11-06T15:44:40.521Z,41.77
2018-11-06T15:47:11.030Z,39.60
2018-11-06T15:49:41.454Z,37.23
2018-11-06T15:52:11.750Z,36.00
2018-11-06T15:54:42.314Z,39.80
2018-11-06T15:57:12.861Z,39.97
2018-11-06T15:59:43.318Z,39.03
2018-11-06T16:02:13.899Z,40.83
2018-11-06T16:04:44.184Z,42.23
2018-11-06T16:07:15.251Z,39.57
2018-11-06T16:09:45.596Z,37.70
2018-11-06T16:12:16.047Z,41.30
2018-11-06T16:14:46.637Z,39.97
2018-11-06T16:17:16.957Z,40.37
2018-11-06T16:19:47.607Z,42.67
2018-11-06T16:22:18.165Z,36.93
2018-11-06T16:24:48.954Z,37.90
2018-11-06T16:27:19.507Z,40.23
2018-11-06T16:29:50.594Z,40.50
2018-11-06T16:32:20.978Z,36.80
2018-11-06T16:34:51.459Z,37.67
2018-11-06T16:37:22.448Z,38.90
2018-11-06T16:39:52.959Z,38.17
2018-11-06T16:42:23.263Z,39.60
2018-11-06T16:44:53.581Z,39.80
2018-11-06T16:47:23.948Z,39.20
2018-11-06T16:49:54.506Z,39.10
2018-11-06T16:52:25.602Z,38.73
2018-11-06T16:54:56.136Z,39.67
2018-11-06T16:57:26.576Z,42.37
2018-11-06T16:59:56.785Z,40.10
2018-11-06T17:02:27.350Z,42.30
2018-11-06T17:04:57.834Z,42.43
2018-11-06T17:07:28.148Z,43.27
2018-11-06T17:09:58.539Z,45.47
2018-11-06T17:12:29.041Z,40.80
2018-11-06T17:14:59.300Z,42.00
2018-11-06T17:17:29.519Z,47.33
2018-11-06T17:19:59.847Z,44.40
2018-11-06T17:22:30.120Z,43.50
2018-11-06T17:25:00.520Z,42.60
2018-11-06T17:27:31.547Z,42.83
2018-11-06T17:30:02.009Z,45.03
2018-11-06T17:32:32.469Z,45.80
2018-11-06T17:35:02.727Z,46.67
2018-11-06T17:37:34.054Z,42.93
2018-11-06T17:40:04.439Z,55.73
2018-11-06T17:42:37.671Z,47.37
2018-11-06T17:45:11.041Z,43.27
2018-11-06T17:47:41.665Z,45.77
2018-11-06T17:50:13.419Z,43.07
2018-11-06T17:52:43.757Z,47.00
2018-11-06T17:55:15.650Z,43.47
2018-11-06T17:57:45.946Z,45.97
2018-11-06T18:00:19.826Z,46.67
2018-11-06T18:02:50.281Z,45.03
2018-11-06T18:05:22.059Z,44.10
2018-11-06T18:07:52.464Z,46.40
2018-11-06T18:10:23.202Z,46.90
2018-11-06T18:12:53.716Z,45.53
2018-11-06T18:15:24.044Z,44.30
2018-11-06T18:17:54.640Z,50.20
2018-11-06T18:20:24.898Z,45.70
2018-11-06T18:22:55.832Z,49.87
2018-11-06T18:25:26.114Z,47.50
2018-11-06T18:27:57.304Z,49.87
2018-11-06T18:30:27.581Z,49.43
2018-11-06T18:32:57.968Z,48.73
2018-11-06T18:35:28.422Z,47.50
2018-11-06T18:37:58.830Z,49.10
2018-11-06T18:40:28.899Z,48.80
2018-11-06T18:42:59.273Z,54.83
2018-11-06T18:45:29.368Z,50.87
2018-11-06T18:47:59.680Z,52.87
2018-11-06T18:50:29.976Z,51.03
2018-11-06T18:53:00.278Z,47.27
2018-11-06T18:55:30.629Z,50.73
2018-11-06T18:58:01.117Z,47.87
2018-11-06T19:00:31.527Z,52.80
2018-11-06T19:03:02.228Z,50.40
2018-11-06T19:05:32.665Z,54.97
2018-11-06T19:08:03.245Z,50.37
2018-11-06T19:10:33.549Z,55.83
2018-11-06T19:13:03.847Z,52.47
2018-11-06T19:15:34.296Z,51.23
2018-11-06T19:18:04.718Z,54.13
2018-11-06T19:20:35.065Z,54.60
2018-11-06T19:23:05.899Z,52.10
2018-11-06T19:25:36.643Z,55.27
2018-11-06T19:28:07.683Z,53.17
2018-11-06T19:30:38.249Z,54.73
2018-11-06T19:33:08.412Z,54.87
2018-11-06T19:35:38.934Z,52.77
2018-11-06T19:38:08.953Z,73.10
2018-11-06T19:40:39.473Z,55.67
2018-11-06T19:43:09.875Z,54.50
2018-11-06T19:45:40.419Z,57.33
2018-11-06T19:48:10.807Z,50.50
2018-11-06T19:50:41.941Z,54.63
2018-11-06T19:53:12.544Z,55.13
2018-11-06T19:55:42.942Z,54.27
2018-11-06T19:58:13.226Z,54.67
2018-11-06T20:00:43.609Z,51.10
2018-11-06T20:03:13.954Z,52.83
2018-11-06T20:05:44.380Z,57.40
2018-11-06T20:08:14.700Z,52.90
2018-11-06T20:10:45.133Z,53.43
2018-11-06T20:13:15.336Z,56.83
2018-11-06T20:15:45.744Z,49.13
2018-11-06T20:18:16.214Z,53.10
2018-11-06T20:20:46.728Z,51.17
2018-11-06T20:23:17.073Z,48.17
2018-11-06T20:25:47.524Z,50.27
2018-11-06T20:28:18.016Z,52.70
2018-11-06T20:30:48.575Z,51.50
2018-11-06T20:33:19.035Z,51.80
2018-11-06T20:35:49.250Z,50.13
2018-11-06T20:38:19.752Z,52.60
2018-11-06T20:40:50.340Z,59.10
2018-11-06T20:43:20.804Z,56.27
2018-11-06T20:45:51.141Z,61.37
2018-11-06T20:48:21.692Z,60.53
2018-11-06T20:50:52.344Z,61.73
2018-11-06T20:53:23.094Z,59.87
2018-11-06T20:55:53.291Z,64.07
2018-11-06T20:58:23.793Z,68.93
2018-11-06T21:00:54.610Z,69.40
2018-11-06T21:03:25.119Z,64.77
2018-11-06T21:05:55.755Z,59.70
2018-11-06T21:08:26.312Z,57.77
2018-11-06T21:10:57.004Z,67.47
2018-11-06T21:13:27.625Z,58.20
2018-11-06T21:15:57.931Z,58.17
2018-11-06T21:18:28.361Z,56.67
2018-11-06T21:20:59.270Z,60.07
2018-11-06T21:23:29.726Z,57.67
2018-11-06T21:26:00.261Z,64.13
2018-11-06T21:28:30.394Z,61.70
2018-11-06T21:31:00.742Z,65.67
2018-11-06T21:33:31.077Z,60.47
2018-11-06T21:36:01.363Z,58.87
2018-11-06T21:38:31.786Z,67.20
2018-11-06T21:41:02.113Z,61.90
2018-11-06T21:43:32.406Z,61.77
2018-11-06T21:46:03.443Z,60.70
2018-11-06T21:48:33.824Z,64.30
2018-11-06T21:51:04.370Z,63.73
2018-11-06T21:53:34.794Z,62.73
2018-11-06T21:56:05.115Z,59.30
2018-11-06T21:58:35.635Z,62.80
2018-11-06T22:01:06.057Z,67.47
2018-11-06T22:03:36.415Z,64.60
2018-11-06T22:06:06.843Z,66.00
2018-11-06T22:08:37.283Z,67.20
2018-11-06T22:11:07.740Z,63.50
2018-11-06T22:13:38.106Z,62.13
2018-11-06T22:16:08.509Z,63.10
2018-11-06T22:18:39.079Z,65.57
2018-11-06T22:21:09.575Z,61.30
2018-11-06T22:23:39.964Z,69.67
2018-11-06T22:26:10.386Z,62.90
2018-11-06T22:28:40.833Z,64.17
2018-11-06T22:31:11.162Z,67.37
2018-11-06T22:33:41.644Z,62.53
2018-11-06T22:36:12.245Z,62.17
2018-11-06T22:38:42.556Z,62.37
2018-11-06T22:41:12.926Z,62.03
2018-11-06T22:43:43.404Z,67.20
2018-11-06T22:46:13.891Z,62.63
2018-11-06T22:48:44.694Z,58.67
2018-11-06T22:51:14.868Z,62.90
2018-11-06T22:53:45.420Z,62.93
2018-11-06T22:56:15.897Z,64.40
2018-11-06T22:58:46.390Z,61.93
2018-11-06T23:01:21.723Z,63.90
2018-11-06T23:03:52.789Z,67.57
2018-11-06T23:06:23.415Z,61.80
2018-11-06T23:08:53.872Z,62.13
2018-11-06T23:11:24.452Z,60.33
2018-11-06T23:13:54.799Z,61.23
2018-11-06T23:16:25.178Z,60.17
2018-11-06T23:18:55.634Z,60.03
2018-11-06T23:21:25.954Z,59.87
2018-11-06T23:23:56.540Z,62.23
2018-11-06T23:26:26.915Z,64.90
2018-11-06T23:28:57.220Z,61.73
2018-11-06T23:31:27.715Z,57.40
2018-11-06T23:33:58.185Z,56.20
2018-11-06T23:36:28.391Z,57.43
2018-11-06T23:38:58.862Z,56.80
2018-11-06T23:41:29.170Z,55.87
2018-11-06T23:43:59.814Z,61.03
2018-11-06T23:46:30.125Z,59.23
2018-11-06T23:49:00.319Z,61.90
2018-11-06T23:51:30.580Z,62.73
2018-11-06T23:54:01.077Z,65.80
2018-11-06T23:56:31.402Z,63.40
2018-11-06T23:59:01.935Z,65.83
